sensor_id;sensor_type;location;lat;lon;timestamp;P1;durP1;ratioP1;P2;durP2;ratioP2
51981;SDS011;37998;53.416;6.730;2024-01-27T00:01:34;37.58;;;6.32;;
51981;SDS011;37998;53.416;6.730;2024-01-27T00:04:00;39.22;;;6.22;;
51981;SDS011;37998;53.416;6.730;2024-01-27T00:06:27;24.40;;;4.93;;
51981;SDS011;37998;53.416;6.730;2024-01-27T00:08:53;33.85;;;5.78;;
51981;SDS011;37998;53.416;6.730;2024-01-27T00:11:19;28.25;;;5.80;;
51981;SDS011;37998;53.416;6.730;2024-01-27T00:13:45;27.75;;;5.45;;
51981;SDS011;37998;53.416;6.730;2024-01-27T00:16:11;30.17;;;5.97;;
51981;SDS011;37998;53.416;6.730;2024-01-27T00:18:37;30.55;;;6.05;;
51981;SDS011;37998;53.416;6.730;2024-01-27T00:21:04;30.88;;;5.47;;
51981;SDS011;37998;53.416;6.730;2024-01-27T00:23:31;30.02;;;6.28;;
51981;SDS011;37998;53.416;6.730;2024-01-27T00:25:57;28.75;;;6.05;;
51981;SDS011;37998;53.416;6.730;2024-01-27T00:28:24;30.83;;;5.28;;
51981;SDS011;37998;53.416;6.730;2024-01-27T00:30:50;27.80;;;5.82;;
51981;SDS011;37998;53.416;6.730;2024-01-27T00:33:15;26.08;;;4.88;;
51981;SDS011;37998;53.416;6.730;2024-01-27T00:35:42;32.80;;;6.05;;
51981;SDS011;37998;53.416;6.730;2024-01-27T00:38:08;35.33;;;5.47;;
51981;SDS011;37998;53.416;6.730;2024-01-27T00:40:34;27.55;;;5.38;;
51981;SDS011;37998;53.416;6.730;2024-01-27T00:43:02;24.80;;;5.90;;
51981;SDS011;37998;53.416;6.730;2024-01-27T00:45:28;25.85;;;5.45;;
51981;SDS011;37998;53.416;6.730;2024-01-27T00:47:58;25.45;;;6.10;;
51981;SDS011;37998;53.416;6.730;2024-01-27T00:50:24;19.80;;;5.15;;
51981;SDS011;37998;53.416;6.730;2024-01-27T00:52:50;34.38;;;6.47;;
51981;SDS011;37998;53.416;6.730;2024-01-27T00:55:16;25.05;;;4.75;;
51981;SDS011;37998;53.416;6.730;2024-01-27T00:57:45;28.42;;;5.00;;
51981;SDS011;37998;53.416;6.730;2024-01-27T01:00:11;29.00;;;5.55;;
51981;SDS011;37998;53.416;6.730;2024-01-27T01:02:37;28.98;;;4.88;;
51981;SDS011;37998;53.416;6.730;2024-01-27T01:05:04;24.83;;;5.30;;
51981;SDS011;37998;53.416;6.730;2024-01-27T01:07:30;23.83;;;5.18;;
51981;SDS011;37998;53.416;6.730;2024-01-27T01:09:56;30.15;;;4.90;;
51981;SDS011;37998;53.416;6.730;2024-01-27T01:12:22;26.77;;;5.10;;
51981;SDS011;37998;53.416;6.730;2024-01-27T01:14:50;25.80;;;5.63;;
51981;SDS011;37998;53.416;6.730;2024-01-27T01:17:17;22.85;;;5.18;;
51981;SDS011;37998;53.416;6.730;2024-01-27T01:19:43;26.77;;;5.30;;
51981;SDS011;37998;53.416;6.730;2024-01-27T01:22:09;25.20;;;5.00;;
51981;SDS011;37998;53.416;6.730;2024-01-27T01:24:35;27.38;;;5.50;;
51981;SDS011;37998;53.416;6.730;2024-01-27T01:27:01;21.42;;;4.63;;
51981;SDS011;37998;53.416;6.730;2024-01-27T01:29:26;28.45;;;5.80;;
51981;SDS011;37998;53.416;6.730;2024-01-27T01:31:52;24.73;;;4.22;;
51981;SDS011;37998;53.416;6.730;2024-01-27T01:34:18;25.35;;;5.60;;
51981;SDS011;37998;53.416;6.730;2024-01-27T01:36:44;21.27;;;5.53;;
51981;SDS011;37998;53.416;6.730;2024-01-27T01:39:11;27.05;;;5.22;;
51981;SDS011;37998;53.416;6.730;2024-01-27T01:41:40;20.33;;;4.75;;
51981;SDS011;37998;53.416;6.730;2024-01-27T01:44:06;21.30;;;5.35;;
51981;SDS011;37998;53.416;6.730;2024-01-27T01:46:33;28.10;;;4.65;;
51981;SDS011;37998;53.416;6.730;2024-01-27T01:48:59;25.08;;;4.68;;
51981;SDS011;37998;53.416;6.730;2024-01-27T01:51:26;28.17;;;4.47;;
51981;SDS011;37998;53.416;6.730;2024-01-27T01:53:54;22.55;;;4.60;;
51981;SDS011;37998;53.416;6.730;2024-01-27T01:56:24;28.40;;;6.00;;
51981;SDS011;37998;53.416;6.730;2024-01-27T01:58:50;30.95;;;5.18;;
51981;SDS011;37998;53.416;6.730;2024-01-27T02:01:19;22.48;;;5.47;;
51981;SDS011;37998;53.416;6.730;2024-01-27T02:03:56;26.80;;;4.65;;
51981;SDS011;37998;53.416;6.730;2024-01-27T02:06:22;36.05;;;6.32;;
51981;SDS011;37998;53.416;6.730;2024-01-27T02:08:49;29.85;;;5.13;;
51981;SDS011;37998;53.416;6.730;2024-01-27T02:11:15;26.80;;;5.72;;
51981;SDS011;37998;53.416;6.730;2024-01-27T02:13:41;24.75;;;5.40;;
51981;SDS011;37998;53.416;6.730;2024-01-27T02:16:08;32.17;;;5.57;;
51981;SDS011;37998;53.416;6.730;2024-01-27T02:18:34;26.02;;;5.15;;
51981;SDS011;37998;53.416;6.730;2024-01-27T02:21:00;33.55;;;5.80;;
51981;SDS011;37998;53.416;6.730;2024-01-27T02:23:25;25.25;;;5.72;;
51981;SDS011;37998;53.416;6.730;2024-01-27T02:25:51;30.80;;;5.78;;
51981;SDS011;37998;53.416;6.730;2024-01-27T02:28:17;19.85;;;4.68;;
51981;SDS011;37998;53.416;6.730;2024-01-27T02:30:44;24.45;;;5.72;;
51981;SDS011;37998;53.416;6.730;2024-01-27T02:33:10;21.55;;;4.90;;
51981;SDS011;37998;53.416;6.730;2024-01-27T02:35:36;23.35;;;5.35;;
51981;SDS011;37998;53.416;6.730;2024-01-27T02:38:02;24.60;;;4.47;;
51981;SDS011;37998;53.416;6.730;2024-01-27T02:40:28;30.65;;;5.25;;
51981;SDS011;37998;53.416;6.730;2024-01-27T02:42:54;21.02;;;4.40;;
51981;SDS011;37998;53.416;6.730;2024-01-27T02:45:19;27.70;;;6.35;;
51981;SDS011;37998;53.416;6.730;2024-01-27T02:47:45;26.98;;;5.35;;
51981;SDS011;37998;53.416;6.730;2024-01-27T02:50:11;23.42;;;5.40;;
51981;SDS011;37998;53.416;6.730;2024-01-27T02:52:37;34.17;;;5.72;;
51981;SDS011;37998;53.416;6.730;2024-01-27T02:55:03;33.50;;;5.25;;
51981;SDS011;37998;53.416;6.730;2024-01-27T02:57:30;28.88;;;5.35;;
51981;SDS011;37998;53.416;6.730;2024-01-27T02:59:56;30.73;;;6.35;;
51981;SDS011;37998;53.416;6.730;2024-01-27T03:02:22;24.67;;;5.22;;
51981;SDS011;37998;53.416;6.730;2024-01-27T03:04:48;26.70;;;5.30;;
51981;SDS011;37998;53.416;6.730;2024-01-27T03:07:14;31.92;;;4.78;;
51981;SDS011;37998;53.416;6.730;2024-01-27T03:09:40;32.53;;;5.00;;
51981;SDS011;37998;53.416;6.730;2024-01-27T03:12:05;26.85;;;4.63;;
51981;SDS011;37998;53.416;6.730;2024-01-27T03:14:32;27.98;;;5.03;;
51981;SDS011;37998;53.416;6.730;2024-01-27T03:16:58;24.52;;;5.25;;
51981;SDS011;37998;53.416;6.730;2024-01-27T03:19:24;29.77;;;4.97;;
51981;SDS011;37998;53.416;6.730;2024-01-27T03:21:50;21.88;;;4.78;;
51981;SDS011;37998;53.416;6.730;2024-01-27T03:24:16;33.63;;;5.30;;
51981;SDS011;37998;53.416;6.730;2024-01-27T03:26:42;19.17;;;4.15;;
51981;SDS011;37998;53.416;6.730;2024-01-27T03:29:08;28.77;;;5.43;;
51981;SDS011;37998;53.416;6.730;2024-01-27T03:31:33;26.77;;;4.78;;
51981;SDS011;37998;53.416;6.730;2024-01-27T03:34:00;25.42;;;5.05;;
51981;SDS011;37998;53.416;6.730;2024-01-27T03:36:26;26.45;;;5.05;;
51981;SDS011;37998;53.416;6.730;2024-01-27T03:38:52;24.50;;;5.05;;
51981;SDS011;37998;53.416;6.730;2024-01-27T03:41:18;20.48;;;4.70;;
51981;SDS011;37998;53.416;6.730;2024-01-27T03:43:44;24.48;;;4.78;;
51981;SDS011;37998;53.416;6.730;2024-01-27T03:46:10;24.13;;;4.47;;
51981;SDS011;37998;53.416;6.730;2024-01-27T03:48:36;25.02;;;5.25;;
51981;SDS011;37998;53.416;6.730;2024-01-27T03:51:02;23.92;;;4.90;;
51981;SDS011;37998;53.416;6.730;2024-01-27T03:53:28;23.33;;;5.10;;
51981;SDS011;37998;53.416;6.730;2024-01-27T03:55:55;27.38;;;4.57;;
51981;SDS011;37998;53.416;6.730;2024-01-27T03:58:23;30.65;;;5.18;;
51981;SDS011;37998;53.416;6.730;2024-01-27T04:00:49;35.17;;;4.70;;
51981;SDS011;37998;53.416;6.730;2024-01-27T04:03:17;28.40;;;4.97;;
51981;SDS011;37998;53.416;6.730;2024-01-27T04:05:43;19.67;;;5.50;;
51981;SDS011;37998;53.416;6.730;2024-01-27T04:08:09;31.33;;;6.60;;
51981;SDS011;37998;53.416;6.730;2024-01-27T04:10:36;27.95;;;6.50;;
51981;SDS011;37998;53.416;6.730;2024-01-27T04:13:02;27.92;;;5.32;;
51981;SDS011;37998;53.416;6.730;2024-01-27T04:15:28;25.02;;;4.28;;
51981;SDS011;37998;53.416;6.730;2024-01-27T04:17:54;23.27;;;5.43;;
51981;SDS011;37998;53.416;6.730;2024-01-27T04:20:20;31.10;;;4.97;;
51981;SDS011;37998;53.416;6.730;2024-01-27T04:22:46;21.70;;;4.82;;
51981;SDS011;37998;53.416;6.730;2024-01-27T04:25:12;24.75;;;4.70;;
51981;SDS011;37998;53.416;6.730;2024-01-27T04:27:40;23.92;;;6.13;;
51981;SDS011;37998;53.416;6.730;2024-01-27T04:30:07;30.65;;;5.68;;
51981;SDS011;37998;53.416;6.730;2024-01-27T04:32:34;18.77;;;4.97;;
51981;SDS011;37998;53.416;6.730;2024-01-27T04:35:01;31.55;;;4.95;;
51981;SDS011;37998;53.416;6.730;2024-01-27T04:37:26;26.70;;;6.03;;
51981;SDS011;37998;53.416;6.730;2024-01-27T04:39:52;20.63;;;4.97;;
51981;SDS011;37998;53.416;6.730;2024-01-27T04:42:18;22.63;;;6.57;;
51981;SDS011;37998;53.416;6.730;2024-01-27T04:44:44;20.75;;;4.97;;
51981;SDS011;37998;53.416;6.730;2024-01-27T04:47:10;37.92;;;5.40;;
51981;SDS011;37998;53.416;6.730;2024-01-27T04:49:36;20.50;;;4.40;;
51981;SDS011;37998;53.416;6.730;2024-01-27T04:52:01;22.58;;;4.40;;
51981;SDS011;37998;53.416;6.730;2024-01-27T04:54:27;22.08;;;4.38;;
51981;SDS011;37998;53.416;6.730;2024-01-27T04:56:53;24.05;;;5.38;;
51981;SDS011;37998;53.416;6.730;2024-01-27T04:59:19;27.27;;;5.78;;
51981;SDS011;37998;53.416;6.730;2024-01-27T05:01:45;27.92;;;4.55;;
51981;SDS011;37998;53.416;6.730;2024-01-27T05:04:12;28.75;;;6.10;;
51981;SDS011;37998;53.416;6.730;2024-01-27T05:06:38;25.27;;;4.72;;
51981;SDS011;37998;53.416;6.730;2024-01-27T05:09:08;25.00;;;4.70;;
51981;SDS011;37998;53.416;6.730;2024-01-27T05:11:34;29.08;;;5.00;;
51981;SDS011;37998;53.416;6.730;2024-01-27T05:14:00;25.13;;;4.65;;
51981;SDS011;37998;53.416;6.730;2024-01-27T05:16:27;29.55;;;5.28;;
51981;SDS011;37998;53.416;6.730;2024-01-27T05:18:53;26.20;;;5.10;;
51981;SDS011;37998;53.416;6.730;2024-01-27T05:21:19;20.92;;;4.43;;
51981;SDS011;37998;53.416;6.730;2024-01-27T05:23:45;27.50;;;4.43;;
51981;SDS011;37998;53.416;6.730;2024-01-27T05:26:11;21.67;;;3.78;;
51981;SDS011;37998;53.416;6.730;2024-01-27T05:28:37;26.58;;;4.78;;
51981;SDS011;37998;53.416;6.730;2024-01-27T05:31:07;28.42;;;5.28;;
51981;SDS011;37998;53.416;6.730;2024-01-27T05:33:34;18.50;;;3.95;;
51981;SDS011;37998;53.416;6.730;2024-01-27T05:36:01;18.02;;;4.45;;
51981;SDS011;37998;53.416;6.730;2024-01-27T05:38:26;22.50;;;4.45;;
51981;SDS011;37998;53.416;6.730;2024-01-27T05:40:55;19.13;;;4.55;;
51981;SDS011;37998;53.416;6.730;2024-01-27T05:43:21;22.23;;;4.60;;
51981;SDS011;37998;53.416;6.730;2024-01-27T05:45:48;19.83;;;4.50;;
51981;SDS011;37998;53.416;6.730;2024-01-27T05:48:14;26.13;;;4.93;;
51981;SDS011;37998;53.416;6.730;2024-01-27T05:50:41;20.77;;;4.57;;
51981;SDS011;37998;53.416;6.730;2024-01-27T05:53:08;15.10;;;4.47;;
51981;SDS011;37998;53.416;6.730;2024-01-27T05:55:34;26.10;;;4.88;;
51981;SDS011;37998;53.416;6.730;2024-01-27T05:57:59;21.38;;;4.47;;
51981;SDS011;37998;53.416;6.730;2024-01-27T06:00:25;26.38;;;4.90;;
51981;SDS011;37998;53.416;6.730;2024-01-27T06:02:51;22.85;;;4.95;;
51981;SDS011;37998;53.416;6.730;2024-01-27T06:05:17;26.35;;;5.18;;
51981;SDS011;37998;53.416;6.730;2024-01-27T06:07:43;32.20;;;5.25;;
51981;SDS011;37998;53.416;6.730;2024-01-27T06:10:10;22.42;;;4.70;;
51981;SDS011;37998;53.416;6.730;2024-01-27T06:12:37;19.10;;;3.80;;
51981;SDS011;37998;53.416;6.730;2024-01-27T06:15:04;27.83;;;5.07;;
51981;SDS011;37998;53.416;6.730;2024-01-27T06:17:31;26.77;;;5.13;;
51981;SDS011;37998;53.416;6.730;2024-01-27T06:20:00;28.30;;;5.45;;
51981;SDS011;37998;53.416;6.730;2024-01-27T06:22:26;19.33;;;5.15;;
51981;SDS011;37998;53.416;6.730;2024-01-27T06:24:52;24.73;;;4.85;;
51981;SDS011;37998;53.416;6.730;2024-01-27T06:27:18;25.13;;;4.70;;
51981;SDS011;37998;53.416;6.730;2024-01-27T06:29:44;23.27;;;4.78;;
51981;SDS011;37998;53.416;6.730;2024-01-27T06:32:10;24.27;;;4.68;;
51981;SDS011;37998;53.416;6.730;2024-01-27T06:34:36;21.25;;;4.63;;
51981;SDS011;37998;53.416;6.730;2024-01-27T06:37:02;25.60;;;4.22;;
51981;SDS011;37998;53.416;6.730;2024-01-27T06:39:28;28.55;;;4.38;;
51981;SDS011;37998;53.416;6.730;2024-01-27T06:41:54;22.10;;;4.75;;
51981;SDS011;37998;53.416;6.730;2024-01-27T06:44:20;18.60;;;4.45;;
51981;SDS011;37998;53.416;6.730;2024-01-27T06:46:46;26.27;;;4.47;;
51981;SDS011;37998;53.416;6.730;2024-01-27T06:49:15;25.27;;;5.55;;
51981;SDS011;37998;53.416;6.730;2024-01-27T06:51:45;23.38;;;5.60;;
51981;SDS011;37998;53.416;6.730;2024-01-27T06:54:11;25.17;;;6.10;;
51981;SDS011;37998;53.416;6.730;2024-01-27T06:56:36;23.13;;;4.78;;
51981;SDS011;37998;53.416;6.730;2024-01-27T06:59:03;22.02;;;5.05;;
51981;SDS011;37998;53.416;6.730;2024-01-27T07:01:29;20.15;;;4.82;;
51981;SDS011;37998;53.416;6.730;2024-01-27T07:03:55;17.05;;;4.40;;
51981;SDS011;37998;53.416;6.730;2024-01-27T07:06:21;22.85;;;4.53;;
51981;SDS011;37998;53.416;6.730;2024-01-27T07:08:46;26.55;;;4.57;;
51981;SDS011;37998;53.416;6.730;2024-01-27T07:11:12;18.85;;;4.20;;
51981;SDS011;37998;53.416;6.730;2024-01-27T07:13:38;20.58;;;5.05;;
51981;SDS011;37998;53.416;6.730;2024-01-27T07:16:06;26.45;;;5.88;;
51981;SDS011;37998;53.416;6.730;2024-01-27T07:18:32;23.10;;;4.30;;
51981;SDS011;37998;53.416;6.730;2024-01-27T07:21:00;24.83;;;4.47;;
51981;SDS011;37998;53.416;6.730;2024-01-27T07:23:27;19.02;;;5.00;;
51981;SDS011;37998;53.416;6.730;2024-01-27T07:25:53;17.70;;;4.03;;
51981;SDS011;37998;53.416;6.730;2024-01-27T07:28:19;21.35;;;4.53;;
51981;SDS011;37998;53.416;6.730;2024-01-27T07:30:45;21.13;;;4.55;;
51981;SDS011;37998;53.416;6.730;2024-01-27T07:33:11;27.13;;;4.68;;
51981;SDS011;37998;53.416;6.730;2024-01-27T07:35:37;24.88;;;5.07;;
51981;SDS011;37998;53.416;6.730;2024-01-27T07:38:03;24.58;;;4.47;;
51981;SDS011;37998;53.416;6.730;2024-01-27T07:40:29;19.80;;;5.63;;
51981;SDS011;37998;53.416;6.730;2024-01-27T07:42:55;23.13;;;4.30;;
51981;SDS011;37998;53.416;6.730;2024-01-27T07:45:21;24.50;;;5.63;;
51981;SDS011;37998;53.416;6.730;2024-01-27T07:47:47;21.10;;;4.65;;
51981;SDS011;37998;53.416;6.730;2024-01-27T07:50:12;19.02;;;5.28;;
51981;SDS011;37998;53.416;6.730;2024-01-27T07:52:38;22.45;;;4.63;;
51981;SDS011;37998;53.416;6.730;2024-01-27T07:55:04;20.02;;;4.55;;
51981;SDS011;37998;53.416;6.730;2024-01-27T07:57:33;23.58;;;4.45;;
51981;SDS011;37998;53.416;6.730;2024-01-27T08:00:00;22.05;;;4.78;;
51981;SDS011;37998;53.416;6.730;2024-01-27T08:02:26;21.67;;;5.20;;
51981;SDS011;37998;53.416;6.730;2024-01-27T08:04:52;26.58;;;5.35;;
51981;SDS011;37998;53.416;6.730;2024-01-27T08:07:18;30.55;;;5.05;;
51981;SDS011;37998;53.416;6.730;2024-01-27T08:09:43;23.58;;;4.55;;
51981;SDS011;37998;53.416;6.730;2024-01-27T08:12:10;22.92;;;4.88;;
51981;SDS011;37998;53.416;6.730;2024-01-27T08:14:36;30.08;;;5.10;;
51981;SDS011;37998;53.416;6.730;2024-01-27T08:17:02;20.83;;;4.30;;
51981;SDS011;37998;53.416;6.730;2024-01-27T08:19:31;25.17;;;5.55;;
51981;SDS011;37998;53.416;6.730;2024-01-27T08:21:57;29.17;;;6.35;;
51981;SDS011;37998;53.416;6.730;2024-01-27T08:24:23;20.92;;;5.07;;
51981;SDS011;37998;53.416;6.730;2024-01-27T08:26:49;19.25;;;4.75;;
51981;SDS011;37998;53.416;6.730;2024-01-27T08:29:15;26.77;;;5.35;;
51981;SDS011;37998;53.416;6.730;2024-01-27T08:31:41;21.65;;;4.88;;
51981;SDS011;37998;53.416;6.730;2024-01-27T08:34:07;25.48;;;5.93;;
51981;SDS011;37998;53.416;6.730;2024-01-27T08:36:34;19.48;;;4.50;;
51981;SDS011;37998;53.416;6.730;2024-01-27T08:39:00;25.95;;;6.22;;
51981;SDS011;37998;53.416;6.730;2024-01-27T08:41:26;20.58;;;5.43;;
51981;SDS011;37998;53.416;6.730;2024-01-27T08:43:51;22.98;;;6.45;;
51981;SDS011;37998;53.416;6.730;2024-01-27T08:46:17;27.08;;;5.57;;
51981;SDS011;37998;53.416;6.730;2024-01-27T08:48:46;25.13;;;5.10;;
51981;SDS011;37998;53.416;6.730;2024-01-27T08:51:12;12.95;;;4.88;;
51981;SDS011;37998;53.416;6.730;2024-01-27T08:53:38;28.85;;;6.13;;
51981;SDS011;37998;53.416;6.730;2024-01-27T08:56:04;19.77;;;6.60;;
51981;SDS011;37998;53.416;6.730;2024-01-27T08:58:31;17.52;;;5.28;;
51981;SDS011;37998;53.416;6.730;2024-01-27T09:00:57;16.00;;;5.03;;
51981;SDS011;37998;53.416;6.730;2024-01-27T09:03:23;26.15;;;5.25;;
51981;SDS011;37998;53.416;6.730;2024-01-27T09:05:48;26.55;;;5.78;;
51981;SDS011;37998;53.416;6.730;2024-01-27T09:08:21;23.90;;;5.60;;
51981;SDS011;37998;53.416;6.730;2024-01-27T09:10:46;27.60;;;5.55;;
51981;SDS011;37998;53.416;6.730;2024-01-27T09:13:12;27.05;;;6.57;;
51981;SDS011;37998;53.416;6.730;2024-01-27T09:15:38;23.35;;;6.30;;
51981;SDS011;37998;53.416;6.730;2024-01-27T09:18:04;30.35;;;6.43;;
51981;SDS011;37998;53.416;6.730;2024-01-27T09:20:30;25.02;;;6.20;;
51981;SDS011;37998;53.416;6.730;2024-01-27T09:22:57;22.70;;;5.60;;
51981;SDS011;37998;53.416;6.730;2024-01-27T09:25:23;23.65;;;5.95;;
51981;SDS011;37998;53.416;6.730;2024-01-27T09:27:52;23.85;;;6.45;;
51981;SDS011;37998;53.416;6.730;2024-01-27T09:30:18;24.90;;;5.80;;
51981;SDS011;37998;53.416;6.730;2024-01-27T09:32:44;26.23;;;5.47;;
51981;SDS011;37998;53.416;6.730;2024-01-27T09:35:10;39.08;;;5.65;;
51981;SDS011;37998;53.416;6.730;2024-01-27T09:37:36;25.17;;;6.20;;
51981;SDS011;37998;53.416;6.730;2024-01-27T09:40:02;25.50;;;5.72;;
51981;SDS011;37998;53.416;6.730;2024-01-27T09:42:29;31.75;;;6.20;;
51981;SDS011;37998;53.416;6.730;2024-01-27T09:44:59;30.05;;;6.85;;
51981;SDS011;37998;53.416;6.730;2024-01-27T09:47:26;25.98;;;7.25;;
51981;SDS011;37998;53.416;6.730;2024-01-27T09:49:53;25.98;;;6.82;;
51981;SDS011;37998;53.416;6.730;2024-01-27T09:52:19;19.50;;;6.55;;
51981;SDS011;37998;53.416;6.730;2024-01-27T09:54:45;25.35;;;6.18;;
51981;SDS011;37998;53.416;6.730;2024-01-27T09:57:11;28.90;;;7.50;;
51981;SDS011;37998;53.416;6.730;2024-01-27T09:59:39;27.13;;;7.22;;
51981;SDS011;37998;53.416;6.730;2024-01-27T10:02:10;26.20;;;5.68;;
51981;SDS011;37998;53.416;6.730;2024-01-27T10:04:40;22.30;;;6.07;;
51981;SDS011;37998;53.416;6.730;2024-01-27T10:07:07;22.40;;;5.80;;
51981;SDS011;37998;53.416;6.730;2024-01-27T10:09:33;26.02;;;6.40;;
51981;SDS011;37998;53.416;6.730;2024-01-27T10:12:00;26.63;;;5.40;;
51981;SDS011;37998;53.416;6.730;2024-01-27T10:14:45;19.55;;;5.72;;
51981;SDS011;37998;53.416;6.730;2024-01-27T10:17:19;30.25;;;6.45;;
51981;SDS011;37998;53.416;6.730;2024-01-27T10:19:47;27.77;;;7.13;;
51981;SDS011;37998;53.416;6.730;2024-01-27T10:22:23;22.88;;;5.57;;
51981;SDS011;37998;53.416;6.730;2024-01-27T10:24:51;21.65;;;6.07;;
51981;SDS011;37998;53.416;6.730;2024-01-27T10:27:17;23.65;;;5.97;;
51981;SDS011;37998;53.416;6.730;2024-01-27T10:29:53;24.35;;;6.25;;
51981;SDS011;37998;53.416;6.730;2024-01-27T10:32:23;22.13;;;6.13;;
51981;SDS011;37998;53.416;6.730;2024-01-27T10:35:02;26.80;;;6.28;;
51981;SDS011;37998;53.416;6.730;2024-01-27T10:37:38;26.23;;;7.70;;
51981;SDS011;37998;53.416;6.730;2024-01-27T10:40:05;20.13;;;6.50;;
51981;SDS011;37998;53.416;6.730;2024-01-27T10:42:36;26.30;;;7.10;;
51981;SDS011;37998;53.416;6.730;2024-01-27T10:45:02;30.67;;;6.70;;
51981;SDS011;37998;53.416;6.730;2024-01-27T10:47:31;18.27;;;6.18;;
51981;SDS011;37998;53.416;6.730;2024-01-27T10:49:58;22.85;;;6.32;;
51981;SDS011;37998;53.416;6.730;2024-01-27T10:52:26;18.73;;;6.97;;
51981;SDS011;37998;53.416;6.730;2024-01-27T10:55:01;27.77;;;7.13;;
51981;SDS011;37998;53.416;6.730;2024-01-27T10:57:29;27.85;;;6.65;;
51981;SDS011;37998;53.416;6.730;2024-01-27T10:59:56;24.42;;;6.97;;
51981;SDS011;37998;53.416;6.730;2024-01-27T11:02:23;16.75;;;6.68;;
51981;SDS011;37998;53.416;6.730;2024-01-27T11:04:50;22.25;;;6.75;;
51981;SDS011;37998;53.416;6.730;2024-01-27T11:07:20;26.67;;;7.25;;
51981;SDS011;37998;53.416;6.730;2024-01-27T11:09:48;20.45;;;6.50;;
51981;SDS011;37998;53.416;6.730;2024-01-27T11:12:15;23.65;;;6.78;;
51981;SDS011;37998;53.416;6.730;2024-01-27T11:14:42;28.38;;;6.30;;
51981;SDS011;37998;53.416;6.730;2024-01-27T11:17:08;25.90;;;7.55;;
51981;SDS011;37998;53.416;6.730;2024-01-27T11:19:34;28.85;;;6.93;;
51981;SDS011;37998;53.416;6.730;2024-01-27T11:22:01;24.42;;;6.20;;
51981;SDS011;37998;53.416;6.730;2024-01-27T11:24:27;23.30;;;6.75;;
51981;SDS011;37998;53.416;6.730;2024-01-27T11:27:06;26.00;;;5.93;;
51981;SDS011;37998;53.416;6.730;2024-01-27T11:29:32;29.35;;;7.80;;
51981;SDS011;37998;53.416;6.730;2024-01-27T11:32:02;26.65;;;6.88;;
51981;SDS011;37998;53.416;6.730;2024-01-27T11:34:40;21.48;;;6.50;;
51981;SDS011;37998;53.416;6.730;2024-01-27T11:37:16;23.83;;;6.35;;
51981;SDS011;37998;53.416;6.730;2024-01-27T11:39:42;28.08;;;6.35;;
51981;SDS011;37998;53.416;6.730;2024-01-27T11:42:12;27.15;;;6.60;;
51981;SDS011;37998;53.416;6.730;2024-01-27T11:44:39;22.75;;;6.28;;
51981;SDS011;37998;53.416;6.730;2024-01-27T11:47:05;19.52;;;6.55;;
51981;SDS011;37998;53.416;6.730;2024-01-27T11:49:43;29.33;;;6.18;;
51981;SDS011;37998;53.416;6.730;2024-01-27T11:52:15;19.45;;;7.03;;
51981;SDS011;37998;53.416;6.730;2024-01-27T11:54:41;23.55;;;6.00;;
51981;SDS011;37998;53.416;6.730;2024-01-27T11:57:07;19.60;;;4.93;;
51981;SDS011;37998;53.416;6.730;2024-01-27T11:59:33;21.85;;;5.90;;
51981;SDS011;37998;53.416;6.730;2024-01-27T12:02:00;25.67;;;5.95;;
51981;SDS011;37998;53.416;6.730;2024-01-27T12:04:27;20.90;;;4.80;;
51981;SDS011;37998;53.416;6.730;2024-01-27T12:06:54;24.85;;;4.38;;
51981;SDS011;37998;53.416;6.730;2024-01-27T12:09:23;24.90;;;5.03;;
51981;SDS011;37998;53.416;6.730;2024-01-27T12:11:48;22.25;;;5.13;;
51981;SDS011;37998;53.416;6.730;2024-01-27T12:14:16;25.42;;;5.20;;
51981;SDS011;37998;53.416;6.730;2024-01-27T12:16:42;20.25;;;5.15;;
51981;SDS011;37998;53.416;6.730;2024-01-27T12:19:09;17.50;;;4.47;;
51981;SDS011;37998;53.416;6.730;2024-01-27T12:21:36;20.83;;;4.78;;
51981;SDS011;37998;53.416;6.730;2024-01-27T12:24:02;24.52;;;4.88;;
51981;SDS011;37998;53.416;6.730;2024-01-27T12:26:29;27.65;;;4.97;;
51981;SDS011;37998;53.416;6.730;2024-01-27T12:28:56;17.80;;;4.30;;
51981;SDS011;37998;53.416;6.730;2024-01-27T12:31:23;20.30;;;5.95;;
51981;SDS011;37998;53.416;6.730;2024-01-27T12:33:51;18.45;;;4.90;;
51981;SDS011;37998;53.416;6.730;2024-01-27T12:36:18;22.70;;;4.28;;
51981;SDS011;37998;53.416;6.730;2024-01-27T12:38:57;20.58;;;4.93;;
51981;SDS011;37998;53.416;6.730;2024-01-27T12:41:27;19.83;;;4.97;;
51981;SDS011;37998;53.416;6.730;2024-01-27T12:43:54;20.63;;;4.53;;
51981;SDS011;37998;53.416;6.730;2024-01-27T12:46:21;22.27;;;3.97;;
51981;SDS011;37998;53.416;6.730;2024-01-27T12:48:47;21.95;;;4.68;;
51981;SDS011;37998;53.416;6.730;2024-01-27T12:51:13;17.27;;;3.97;;
51981;SDS011;37998;53.416;6.730;2024-01-27T12:53:39;20.42;;;4.93;;
51981;SDS011;37998;53.416;6.730;2024-01-27T12:56:12;19.60;;;4.45;;
51981;SDS011;37998;53.416;6.730;2024-01-27T12:58:40;22.35;;;4.13;;
51981;SDS011;37998;53.416;6.730;2024-01-27T13:01:07;20.38;;;4.35;;
51981;SDS011;37998;53.416;6.730;2024-01-27T13:03:34;18.98;;;4.28;;
51981;SDS011;37998;53.416;6.730;2024-01-27T13:06:00;19.15;;;4.90;;
51981;SDS011;37998;53.416;6.730;2024-01-27T13:08:28;17.63;;;3.75;;
51981;SDS011;37998;53.416;6.730;2024-01-27T13:10:54;18.42;;;4.20;;
51981;SDS011;37998;53.416;6.730;2024-01-27T13:13:20;21.35;;;4.63;;
51981;SDS011;37998;53.416;6.730;2024-01-27T13:15:46;19.90;;;4.82;;
51981;SDS011;37998;53.416;6.730;2024-01-27T13:18:12;20.05;;;4.63;;
51981;SDS011;37998;53.416;6.730;2024-01-27T13:20:38;18.67;;;4.22;;
51981;SDS011;37998;53.416;6.730;2024-01-27T13:23:05;22.85;;;4.68;;
51981;SDS011;37998;53.416;6.730;2024-01-27T13:25:32;26.33;;;4.70;;
51981;SDS011;37998;53.416;6.730;2024-01-27T13:27:57;21.08;;;4.22;;
51981;SDS011;37998;53.416;6.730;2024-01-27T13:30:24;18.60;;;4.47;;
51981;SDS011;37998;53.416;6.730;2024-01-27T13:32:50;23.73;;;4.10;;
51981;SDS011;37998;53.416;6.730;2024-01-27T13:35:16;21.98;;;4.93;;
51981;SDS011;37998;53.416;6.730;2024-01-27T13:37:42;24.60;;;4.30;;
51981;SDS011;37998;53.416;6.730;2024-01-27T13:40:08;27.02;;;5.03;;
51981;SDS011;37998;53.416;6.730;2024-01-27T13:42:35;26.45;;;5.28;;
51981;SDS011;37998;53.416;6.730;2024-01-27T13:45:02;22.10;;;4.40;;
51981;SDS011;37998;53.416;6.730;2024-01-27T13:47:30;26.15;;;4.05;;
51981;SDS011;37998;53.416;6.730;2024-01-27T13:49:56;23.33;;;4.75;;
51981;SDS011;37998;53.416;6.730;2024-01-27T13:52:23;26.00;;;4.70;;
51981;SDS011;37998;53.416;6.730;2024-01-27T13:54:49;21.38;;;4.45;;
51981;SDS011;37998;53.416;6.730;2024-01-27T13:57:15;17.20;;;3.92;;
51981;SDS011;37998;53.416;6.730;2024-01-27T13:59:41;24.80;;;5.50;;
51981;SDS011;37998;53.416;6.730;2024-01-27T14:02:07;22.67;;;5.88;;
51981;SDS011;37998;53.416;6.730;2024-01-27T14:04:35;28.45;;;5.22;;
51981;SDS011;37998;53.416;6.730;2024-01-27T14:07:01;23.02;;;4.95;;
51981;SDS011;37998;53.416;6.730;2024-01-27T14:09:31;28.58;;;5.75;;
51981;SDS011;37998;53.416;6.730;2024-01-27T14:11:58;22.38;;;5.35;;
51981;SDS011;37998;53.416;6.730;2024-01-27T14:14:24;25.33;;;4.78;;
51981;SDS011;37998;53.416;6.730;2024-01-27T14:16:49;17.02;;;4.13;;
51981;SDS011;37998;53.416;6.730;2024-01-27T14:19:15;20.45;;;4.28;;
51981;SDS011;37998;53.416;6.730;2024-01-27T14:21:41;26.20;;;5.45;;
51981;SDS011;37998;53.416;6.730;2024-01-27T14:24:08;22.80;;;4.57;;
51981;SDS011;37998;53.416;6.730;2024-01-27T14:26:34;25.92;;;4.15;;
51981;SDS011;37998;53.416;6.730;2024-01-27T14:29:00;19.35;;;5.03;;
51981;SDS011;37998;53.416;6.730;2024-01-27T14:31:26;18.23;;;5.55;;